createdAt,value
2017-11-09T00:00:41.717Z,245.97
2017-11-09T00:03:09.960Z,291.57
2017-11-09T00:05:43.750Z,255.50
2017-11-09T00:08:12.763Z,259.10
2017-11-09T00:10:41.007Z,265.53
2017-11-09T00:13:10.032Z,229.53
2017-11-09T00:15:38.270Z,258.70
2017-11-09T00:18:07.293Z,265.00
2017-11-09T00:20:35.576Z,261.10
2017-11-09T00:23:04.579Z,277.57
2017-11-09T00:25:32.830Z,282.73
2017-11-09T00:28:01.099Z,244.47
2017-11-09T00:30:30.121Z,223.40
2017-11-09T00:32:58.393Z,240.10
2017-11-09T00:35:26.646Z,270.83
2017-11-09T00:37:55.687Z,264.27
2017-11-09T00:40:23.940Z,233.77
2017-11-09T00:42:52.186Z,278.43
2017-11-09T00:45:21.208Z,277.60
2017-11-09T00:47:49.462Z,219.27
2017-11-09T00:50:18.471Z,264.63
2017-11-09T00:52:46.711Z,250.40
2017-11-09T00:55:15.735Z,267.67
2017-11-09T00:57:43.978Z,296.73
2017-11-09T01:00:12.228Z,286.20
2017-11-09T01:02:40.471Z,239.87
2017-11-09T01:05:08.720Z,278.03
2017-11-09T01:07:37.731Z,237.13
2017-11-09T01:10:05.986Z,219.17
2017-11-09T01:12:34.996Z,260.37
2017-11-09T01:15:03.599Z,327.40
2017-11-09T01:17:31.855Z,342.43
2017-11-09T01:20:00.098Z,336.57
2017-11-09T01:22:29.119Z,296.77
2017-11-09T01:24:57.364Z,257.70
2017-11-09T01:27:25.619Z,264.23
2017-11-09T01:29:53.883Z,262.57
2017-11-09T01:32:22.118Z,296.43
2017-11-09T01:34:50.367Z,277.17
2017-11-09T01:37:18.619Z,264.67
2017-11-09T01:39:46.861Z,263.93
2017-11-09T01:42:15.110Z,255.80
2017-11-09T01:44:43.360Z,261.97
2017-11-09T01:47:11.616Z,255.40
2017-11-09T01:49:39.867Z,283.93
2017-11-09T01:52:08.131Z,351.33
2017-11-09T01:54:36.379Z,358.27
2017-11-09T01:57:05.384Z,303.27
2017-11-09T01:59:33.635Z,306.80
2017-11-09T02:02:01.870Z,255.73
2017-11-09T02:04:30.115Z,247.80
2017-11-09T02:06:58.358Z,269.17
2017-11-09T02:09:27.378Z,270.03
2017-11-09T02:11:55.627Z,287.13
2017-11-09T02:14:23.876Z,292.57
2017-11-09T02:16:52.892Z,260.37
2017-11-09T02:19:21.139Z,267.63
2017-11-09T02:21:49.386Z,293.83
2017-11-09T02:24:17.635Z,305.40
2017-11-09T02:26:46.644Z,247.90
2017-11-09T02:29:14.908Z,290.03
2017-11-09T02:31:43.923Z,294.67
2017-11-09T02:34:12.174Z,252.93
2017-11-09T02:36:41.182Z,240.47
2017-11-09T02:39:09.424Z,322.87
2017-11-09T02:41:37.691Z,260.07
2017-11-09T02:44:05.926Z,263.47
2017-11-09T02:46:34.182Z,273.57
2017-11-09T02:49:02.419Z,302.27
2017-11-09T02:51:30.674Z,255.07
2017-11-09T02:53:58.916Z,241.60
2017-11-09T02:56:27.167Z,319.50
2017-11-09T02:58:56.174Z,318.40
2017-11-09T03:01:24.429Z,289.33
2017-11-09T03:03:53.434Z,266.07
2017-11-09T03:06:22.447Z,320.63
2017-11-09T03:08:50.759Z,270.23
2017-11-09T03:11:19.026Z,273.97
2017-11-09T03:13:47.276Z,263.87
2017-11-09T03:16:15.509Z,274.83
2017-11-09T03:18:43.762Z,247.73
2017-11-09T03:21:11.999Z,268.93
2017-11-09T03:23:40.260Z,285.60
2017-11-09T03:26:08.502Z,251.10
2017-11-09T03:28:36.753Z,268.13
2017-11-09T03:31:04.992Z,266.73
2017-11-09T03:33:33.242Z,281.87
2017-11-09T03:36:02.252Z,261.63
2017-11-09T03:38:30.507Z,263.53
2017-11-09T03:40:59.522Z,260.13
2017-11-09T03:43:27.791Z,276.20
2017-11-09T03:45:56.812Z,276.90
2017-11-09T03:48:25.055Z,306.30
2017-11-09T03:50:54.075Z,275.60
2017-11-09T03:53:22.317Z,316.07
2017-11-09T03:55:50.579Z,260.57
2017-11-09T03:58:18.822Z,285.73
2017-11-09T04:00:47.073Z,257.67
2017-11-09T04:03:15.314Z,263.37
2017-11-09T04:05:44.333Z,272.07
2017-11-09T04:08:12.573Z,247.50
2017-11-09T04:10:40.831Z,235.93
2017-11-09T04:13:09.080Z,266.33
2017-11-09T04:15:37.353Z,248.83
2017-11-09T04:18:05.595Z,201.80
2017-11-09T04:20:34.603Z,238.20
2017-11-09T04:23:02.861Z,255.80
2017-11-09T04:25:31.104Z,229.73
2017-11-09T04:27:59.359Z,246.07
2017-11-09T04:30:27.606Z,235.10
2017-11-09T04:32:55.855Z,222.73
2017-11-09T04:35:24.870Z,247.43
2017-11-09T04:37:53.123Z,197.97
2017-11-09T04:40:21.371Z,216.97
2017-11-09T04:42:49.627Z,226.60
2017-11-09T04:45:17.871Z,237.23
2017-11-09T04:47:46.126Z,239.10
2017-11-09T04:50:15.135Z,245.83
2017-11-09T04:52:43.401Z,232.80
2017-11-09T04:55:12.430Z,241.60
2017-11-09T04:57:40.668Z,222.53
2017-11-09T05:00:09.693Z,204.10
2017-11-09T05:02:37.935Z,188.83
2017-11-09T05:05:06.959Z,212.37
2017-11-09T05:07:35.208Z,214.97
2017-11-09T05:10:03.466Z,214.47
2017-11-09T05:12:31.706Z,211.87
2017-11-09T05:14:59.958Z,182.43
2017-11-09T05:17:28.207Z,193.37
2017-11-09T05:19:56.454Z,208.83
2017-11-09T05:22:24.703Z,205.97
2017-11-09T05:24:52.974Z,194.03
2017-11-09T05:27:21.221Z,206.23
2017-11-09T05:29:49.675Z,215.90
2017-11-09T05:32:18.689Z,211.00
2017-11-09T05:34:47.707Z,207.37
2017-11-09T05:37:15.966Z,197.80
2017-11-09T05:39:44.218Z,189.93
2017-11-09T05:42:12.479Z,176.30
2017-11-09T05:44:40.731Z,177.27
2017-11-09T05:47:08.987Z,187.47
2017-11-09T05:49:37.225Z,197.10
2017-11-09T05:52:06.247Z,186.87
2017-11-09T05:54:34.492Z,205.67
2017-11-09T05:57:03.531Z,212.37
2017-11-09T05:59:31.779Z,187.10
2017-11-09T06:02:00.031Z,179.83
2017-11-09T06:04:28.282Z,203.80
2017-11-09T06:06:56.531Z,188.20
2017-11-09T06:09:24.784Z,209.17
2017-11-09T06:11:53.041Z,221.57
2017-11-09T06:14:21.270Z,210.73
2017-11-09T06:16:49.513Z,206.20
2017-11-09T06:19:17.770Z,198.80
2017-11-09T06:21:46.778Z,196.30
2017-11-09T06:24:15.047Z,191.83
2017-11-09T06:26:44.069Z,202.70
2017-11-09T06:29:12.315Z,202.43
2017-11-09T06:31:40.562Z,181.27
2017-11-09T06:34:08.810Z,190.03
2017-11-09T06:36:37.070Z,209.13
2017-11-09T06:39:05.317Z,185.97
2017-11-09T06:41:34.325Z,198.00
2017-11-09T06:44:02.599Z,192.17
2017-11-09T06:46:30.835Z,207.10
2017-11-09T06:48:59.086Z,194.93
2017-11-09T06:51:27.350Z,187.07
2017-11-09T06:53:55.586Z,176.40
2017-11-09T06:56:23.847Z,201.90
2017-11-09T06:58:52.090Z,173.70
2017-11-09T07:01:20.372Z,163.57
2017-11-09T07:03:48.595Z,150.10
2017-11-09T07:06:16.846Z,161.07
2017-11-09T07:08:45.864Z,165.27
2017-11-09T07:11:14.111Z,164.57
2017-11-09T07:13:43.130Z,161.40
2017-11-09T07:16:11.575Z,158.13
2017-11-09T07:18:41.264Z,156.40
2017-11-09T07:21:10.181Z,163.23
2017-11-09T07:23:38.625Z,166.03
2017-11-09T07:26:06.880Z,158.80
2017-11-09T07:28:35.130Z,146.20
2017-11-09T07:31:03.383Z,162.00
2017-11-09T07:33:31.629Z,154.03
2017-11-09T07:35:59.882Z,136.33
2017-11-09T07:38:28.140Z,146.50
2017-11-09T07:40:56.389Z,132.40
2017-11-09T07:43:24.630Z,114.40
2017-11-09T07:45:52.886Z,132.03
2017-11-09T07:48:21.140Z,120.00
2017-11-09T07:50:50.155Z,123.27
2017-11-09T07:53:18.406Z,116.83
2017-11-09T07:55:46.656Z,115.90
2017-11-09T07:58:14.926Z,98.57
2017-11-09T08:00:43.173Z,119.23
2017-11-09T08:03:11.425Z,119.70
2017-11-09T08:05:39.673Z,99.60
2017-11-09T08:08:08.683Z,94.17
2017-11-09T08:10:36.939Z,104.20
2017-11-09T08:13:05.952Z,95.93
2017-11-09T08:15:34.202Z,103.40
2017-11-09T08:18:03.212Z,85.93
2017-11-09T08:20:31.486Z,86.27
2017-11-09T08:22:59.705Z,87.43
2017-11-09T08:25:30.912Z,69.27
2017-11-09T08:28:00.788Z,84.50
2017-11-09T08:30:32.476Z,69.70
2017-11-09T08:33:03.719Z,70.63
2017-11-09T08:35:32.752Z,73.50
2017-11-09T08:38:00.997Z,75.43
2017-11-09T08:40:29.241Z,85.53
2017-11-09T08:42:58.262Z,66.07
2017-11-09T08:45:26.514Z,67.17
2017-11-09T08:47:54.762Z,75.07
2017-11-09T08:50:23.008Z,72.47
2017-11-09T08:52:51.259Z,70.33
2017-11-09T08:55:19.510Z,70.50
2017-11-09T08:57:48.527Z,72.87
2017-11-09T09:00:16.778Z,72.60
2017-11-09T09:02:45.048Z,93.90
2017-11-09T09:05:13.284Z,86.33
2017-11-09T09:07:41.531Z,75.73
2017-11-09T09:10:09.782Z,69.97
2017-11-09T09:12:38.795Z,72.30
2017-11-09T09:15:07.051Z,64.17
2017-11-09T09:17:35.290Z,61.90
2017-11-09T09:20:03.544Z,57.60
2017-11-09T09:22:36.610Z,62.43
2017-11-09T09:25:07.263Z,62.30
2017-11-09T09:27:35.494Z,58.70
2017-11-09T09:30:12.021Z,66.60
2017-11-09T09:32:43.291Z,64.70
2017-11-09T09:38:22.927Z,62.43
2017-11-09T09:40:51.174Z,59.47
2017-11-09T09:43:19.419Z,63.37
2017-11-09T09:45:47.663Z,66.00
2017-11-09T09:48:15.922Z,53.73
2017-11-09T09:50:44.183Z,58.90
2017-11-09T09:53:12.427Z,68.83
2017-11-09T09:55:40.667Z,46.33
2017-11-09T09:58:08.928Z,49.13
2017-11-09T10:00:37.172Z,44.60
2017-11-09T10:03:05.416Z,44.17
2017-11-09T10:05:33.665Z,48.53
2017-11-09T10:08:01.911Z,48.70
2017-11-09T10:10:30.156Z,49.83
2017-11-09T10:12:59.172Z,44.83
2017-11-09T10:15:27.417Z,40.40
2017-11-09T10:17:55.667Z,40.33
2017-11-09T10:20:23.921Z,36.60
2017-11-09T10:22:52.169Z,38.43
2017-11-09T10:25:20.416Z,33.90
2017-11-09T10:27:48.652Z,33.97
2017-11-09T10:30:16.908Z,38.47
2017-11-09T10:32:45.183Z,33.17
2017-11-09T10:35:13.435Z,31.47
2017-11-09T10:37:42.444Z,32.80
2017-11-09T10:40:10.696Z,30.23
2017-11-09T10:42:39.712Z,27.67
2017-11-09T10:45:07.956Z,28.37
2017-11-09T10:47:36.211Z,29.30
2017-11-09T10:50:04.440Z,29.77
2017-11-09T10:52:32.683Z,27.50
2017-11-09T10:55:00.925Z,27.10
2017-11-09T10:57:29.182Z,27.60
2017-11-09T10:59:57.446Z,22.90
2017-11-09T11:02:25.695Z,24.93
2017-11-09T11:04:54.711Z,22.73
2017-11-09T11:07:22.956Z,22.20
2017-11-09T11:09:51.969Z,23.97
2017-11-09T11:12:20.975Z,24.43
2017-11-09T11:14:49.218Z,21.80
2017-11-09T11:17:18.242Z,22.03
2017-11-09T11:19:46.494Z,19.03
2017-11-09T11:22:15.507Z,20.13
2017-11-09T11:24:43.747Z,21.40
2017-11-09T11:27:12.766Z,20.70
2017-11-09T11:29:41.011Z,18.70
2017-11-09T11:32:09.274Z,20.93
2017-11-09T11:34:37.520Z,19.57
2017-11-09T11:37:05.769Z,21.37
2017-11-09T11:39:34.023Z,20.13
2017-11-09T11:42:03.031Z,19.40
2017-11-09T11:44:32.049Z,19.73
2017-11-09T11:47:00.302Z,29.90
2017-11-09T11:49:29.316Z,21.57
2017-11-09T11:51:57.564Z,19.30
2017-11-09T11:54:26.586Z,20.80
2017-11-09T11:56:54.835Z,19.50
2017-11-09T11:59:23.852Z,21.63
2017-11-09T12:01:52.099Z,18.50
2017-11-09T12:04:24.054Z,19.03
2017-11-09T12:06:53.066Z,22.80
2017-11-09T12:09:20.606Z,28.37
2017-11-09T12:11:53.460Z,25.03
2017-11-09T12:14:21.702Z,27.83
2017-11-09T12:16:49.951Z,25.37
2017-11-09T12:19:18.963Z,24.73
2017-11-09T12:21:47.215Z,24.97
2017-11-09T12:24:16.219Z,25.10
2017-11-09T12:26:44.470Z,25.43
2017-11-09T12:29:14.590Z,27.40
2017-11-09T12:31:42.839Z,25.47
2017-11-09T12:34:11.080Z,25.37
2017-11-09T12:36:39.348Z,23.93
2017-11-09T12:39:07.596Z,24.30
2017-11-09T12:41:35.834Z,23.67
2017-11-09T12:44:04.087Z,25.77
2017-11-09T12:46:32.334Z,22.57
2017-11-09T12:49:01.353Z,26.77
2017-11-09T12:51:29.596Z,25.23
2017-11-09T12:53:58.612Z,28.30
2017-11-09T12:56:26.855Z,27.57
2017-11-09T12:58:55.109Z,26.50
2017-11-09T13:01:23.351Z,25.00
2017-11-09T13:03:51.599Z,25.83
2017-11-09T13:06:19.847Z,27.27
2017-11-09T13:08:48.099Z,28.20
2017-11-09T13:11:16.343Z,29.57
2017-11-09T13:13:44.607Z,34.03
2017-11-09T13:16:12.851Z,37.90
2017-11-09T13:18:41.090Z,46.50
2017-11-09T13:21:09.351Z,44.70
2017-11-09T13:23:37.585Z,40.40
2017-11-09T13:26:06.607Z,39.23
2017-11-09T13:28:34.851Z,45.50
2017-11-09T13:31:03.874Z,43.23
2017-11-09T13:33:32.119Z,45.97
2017-11-09T13:36:01.136Z,47.43
2017-11-09T13:38:29.380Z,55.03
2017-11-09T13:40:57.631Z,57.07
2017-11-09T13:43:25.875Z,63.67
2017-11-09T13:45:54.127Z,51.37
2017-11-09T13:48:23.136Z,53.20
2017-11-09T13:50:51.408Z,52.20
2017-11-09T13:53:19.660Z,50.03
2017-11-09T13:55:48.675Z,56.53
2017-11-09T13:58:16.930Z,53.83
2017-11-09T14:00:45.939Z,51.83
2017-11-09T14:03:14.955Z,57.53
2017-11-09T14:05:43.196Z,52.43
2017-11-09T14:08:12.215Z,56.60
2017-11-09T14:10:40.460Z,57.90
2017-11-09T14:13:09.482Z,62.87
2017-11-09T14:15:37.733Z,54.43
2017-11-09T14:18:06.746Z,51.80
2017-11-09T14:20:34.986Z,56.03
2017-11-09T14:23:03.231Z,57.70
2017-11-09T14:25:31.476Z,53.33
2017-11-09T14:27:59.730Z,47.90
2017-11-09T14:30:28.744Z,48.83
2017-11-09T14:32:56.995Z,48.20
2017-11-09T14:35:26.004Z,57.10
2017-11-09T14:37:54.258Z,51.43
2017-11-09T14:40:23.271Z,51.07
2017-11-09T14:42:51.519Z,49.00
2017-11-09T14:45:19.755Z,49.63
2017-11-09T14:47:48.002Z,55.40
2017-11-09T14:50:16.238Z,50.07
2017-11-09T14:52:44.486Z,48.60
2017-11-09T14:55:12.730Z,53.30
2017-11-09T14:57:40.974Z,49.73
2017-11-09T15:00:09.987Z,53.07
2017-11-09T15:02:39.006Z,50.90
2017-11-09T15:05:07.246Z,51.10
2017-11-09T15:07:36.254Z,53.77
2017-11-09T15:10:04.501Z,52.07
2017-11-09T15:12:32.747Z,55.03
2017-11-09T15:15:00.994Z,54.20
2017-11-09T15:17:29.242Z,50.63
2017-11-09T15:19:58.255Z,55.23
2017-11-09T15:22:26.510Z,58.47
2017-11-09T15:24:55.518Z,55.10
2017-11-09T15:27:23.769Z,51.87
2017-11-09T15:29:52.782Z,63.53
2017-11-09T15:32:21.033Z,48.43
2017-11-09T15:34:50.079Z,64.20
2017-11-09T15:37:18.335Z,59.67
2017-11-09T15:39:46.589Z,63.70
2017-11-09T15:42:15.597Z,76.67
2017-11-09T15:44:43.849Z,65.73
2017-11-09T15:47:12.088Z,76.77
2017-11-09T15:49:40.336Z,63.97
2017-11-09T15:52:08.580Z,76.23
2017-11-09T15:54:37.600Z,75.10
2017-11-09T15:57:05.845Z,63.30
2017-11-09T15:59:34.097Z,69.80
2017-11-09T16:02:02.335Z,66.63
2017-11-09T16:04:30.578Z,61.13
2017-11-09T16:07:01.522Z,66.63
2017-11-09T16:09:30.540Z,68.93
2017-11-09T16:11:58.776Z,69.73
2017-11-09T16:14:27.791Z,65.57
2017-11-09T16:16:56.032Z,72.70
2017-11-09T16:19:24.279Z,67.93
2017-11-09T16:21:52.523Z,74.67
2017-11-09T16:24:20.768Z,64.53
2017-11-09T16:26:49.771Z,69.47
2017-11-09T16:29:18.786Z,69.17
2017-11-09T16:31:47.035Z,64.20
2017-11-09T16:34:16.046Z,69.93
2017-11-09T16:36:44.300Z,68.20
2017-11-09T16:39:13.339Z,67.73
2017-11-09T16:41:41.594Z,62.67
2017-11-09T16:44:09.844Z,66.77
2017-11-09T16:46:38.862Z,66.70
2017-11-09T16:49:07.119Z,76.77
2017-11-09T16:51:36.134Z,81.00
2017-11-09T16:54:04.386Z,68.10
2017-11-09T16:56:33.400Z,67.97
2017-11-09T16:59:01.648Z,74.23
2017-11-09T17:01:29.892Z,72.63
2017-11-09T17:03:58.135Z,60.80
2017-11-09T17:06:26.379Z,68.73
2017-11-09T17:08:55.391Z,79.43
2017-11-09T17:11:24.555Z,76.40
2017-11-09T17:13:52.807Z,69.70
2017-11-09T17:16:21.051Z,68.30
2017-11-09T17:18:49.294Z,72.13
2017-11-09T17:21:18.334Z,73.40
2017-11-09T17:23:46.579Z,63.47
2017-11-09T17:26:14.833Z,71.53
2017-11-09T17:28:43.082Z,69.43
2017-11-09T17:31:11.318Z,84.97
2017-11-09T17:33:39.573Z,74.33
2017-11-09T17:36:08.580Z,64.03
2017-11-09T17:38:36.827Z,64.80
2017-11-09T17:41:05.844Z,68.10
2017-11-09T17:43:34.094Z,74.67
2017-11-09T17:46:02.334Z,72.40
2017-11-09T17:48:30.594Z,66.97
2017-11-09T17:50:58.844Z,76.67
2017-11-09T17:53:27.860Z,72.00
2017-11-09T17:55:56.103Z,67.33
2017-11-09T17:58:25.118Z,73.27
2017-11-09T18:00:53.358Z,71.07
2017-11-09T18:03:22.398Z,66.77
2017-11-09T18:05:50.643Z,72.80
2017-11-09T18:08:19.658Z,68.57
2017-11-09T18:10:47.905Z,75.93
2017-11-09T18:13:16.907Z,73.27
2017-11-09T18:15:45.166Z,72.30
2017-11-09T18:18:14.172Z,68.20
2017-11-09T18:20:42.482Z,67.87
2017-11-09T18:23:14.542Z,66.30
2017-11-09T18:25:42.801Z,72.97
2017-11-09T18:28:11.039Z,67.63
2017-11-09T18:30:39.294Z,67.10
2017-11-09T18:33:07.535Z,73.17
2017-11-09T18:35:35.786Z,72.00
2017-11-09T18:38:04.792Z,61.60
2017-11-09T18:40:33.044Z,50.57
2017-11-09T18:43:02.051Z,65.20
2017-11-09T18:45:31.075Z,72.87
2017-11-09T18:47:59.326Z,69.93
2017-11-09T18:50:27.577Z,68.03
2017-11-09T18:52:56.589Z,64.93
2017-11-09T18:55:24.834Z,74.87
2017-11-09T18:57:53.083Z,75.80
2017-11-09T19:00:21.334Z,73.70
2017-11-09T19:02:49.587Z,76.47
2017-11-09T19:05:18.593Z,73.93
2017-11-09T19:07:46.850Z,71.60
2017-11-09T19:10:15.862Z,77.00
2017-11-09T19:12:44.113Z,76.63
2017-11-09T19:15:13.131Z,68.63
2017-11-09T19:17:41.373Z,70.00
2017-11-09T19:20:09.615Z,70.97
2017-11-09T19:22:37.862Z,78.93
2017-11-09T19:25:06.103Z,73.53
2017-11-09T19:27:35.114Z,74.23
2017-11-09T19:30:04.123Z,76.10
2017-11-09T19:32:32.363Z,66.60
2017-11-09T19:35:01.397Z,69.67
2017-11-09T19:37:29.635Z,62.33
2017-11-09T19:39:57.886Z,59.30
2017-11-09T19:42:26.131Z,53.27
2017-11-09T19:44:54.388Z,51.00
2017-11-09T19:47:23.391Z,56.70
2017-11-09T19:49:51.639Z,62.57
2017-11-09T19:52:20.644Z,56.40
2017-11-09T19:54:49.678Z,42.53
2017-11-09T19:57:17.921Z,51.17
2017-11-09T19:59:46.159Z,52.87
2017-11-09T20:02:14.414Z,44.40
2017-11-09T20:04:42.647Z,35.40
2017-11-09T20:07:10.894Z,33.93
2017-11-09T20:09:39.133Z,32.80
2017-11-09T20:12:07.387Z,37.87
2017-11-09T20:14:35.627Z,36.17
2017-11-09T20:17:03.864Z,35.83
2017-11-09T20:19:32.103Z,22.97
2017-11-09T20:22:00.352Z,37.60
2017-11-09T20:24:28.599Z,34.37
2017-11-09T20:26:56.861Z,39.77
2017-11-09T20:29:25.102Z,32.70
2017-11-09T20:31:53.397Z,32.40
2017-11-09T20:34:21.643Z,37.93
2017-11-09T20:36:50.650Z,34.63
2017-11-09T20:39:19.807Z,36.70
2017-11-09T20:41:48.062Z,30.00
2017-11-09T20:44:16.306Z,33.13
2017-11-09T20:46:44.550Z,40.03
2017-11-09T20:49:13.567Z,35.97
2017-11-09T20:51:41.806Z,33.60
2017-11-09T20:54:10.056Z,31.63
2017-11-09T20:56:38.307Z,30.00
2017-11-09T20:59:06.579Z,35.63
2017-11-09T21:01:35.558Z,32.07
2017-11-09T21:04:03.807Z,23.07
2017-11-09T21:06:32.811Z,35.70
2017-11-09T21:09:01.844Z,25.90
2017-11-09T21:11:30.075Z,30.00
2017-11-09T21:13:59.087Z,21.40
2017-11-09T21:16:27.335Z,28.60
2017-11-09T21:18:56.400Z,24.47
2017-11-09T21:21:24.639Z,26.07
2017-11-09T21:23:52.896Z,22.60
2017-11-09T21:26:21.906Z,24.40
2017-11-09T21:28:50.152Z,20.07
2017-11-09T21:31:19.181Z,21.60
2017-11-09T21:33:47.415Z,27.93
2017-11-09T21:36:15.664Z,21.67
2017-11-09T21:38:43.910Z,22.37
2017-11-09T21:41:12.174Z,20.43
2017-11-09T21:43:40.411Z,16.10
2017-11-09T21:46:08.661Z,16.20
2017-11-09T21:48:36.895Z,20.97
2017-11-09T21:51:11.605Z,18.67
2017-11-09T21:53:40.607Z,16.57
2017-11-09T21:56:08.865Z,17.20
2017-11-09T21:58:38.967Z,18.93
2017-11-09T22:01:07.219Z,17.10
2017-11-09T22:03:35.465Z,17.43
2017-11-09T22:06:03.708Z,16.23
2017-11-09T22:08:32.719Z,19.73
2017-11-09T22:11:01.735Z,24.80
2017-11-09T22:13:30.002Z,20.57
2017-11-09T22:15:58.987Z,23.13
2017-11-09T22:18:27.242Z,27.87
2017-11-09T22:20:56.250Z,27.20
2017-11-09T22:23:24.495Z,27.73
2017-11-09T22:25:52.763Z,27.67
2017-11-09T22:28:21.006Z,26.50
2017-11-09T22:30:49.281Z,24.33
2017-11-09T22:33:17.546Z,23.03
2017-11-09T22:35:45.791Z,27.57
2017-11-09T22:38:14.798Z,28.33
2017-11-09T22:40:43.865Z,37.20
2017-11-09T22:43:12.105Z,30.50
2017-11-09T22:45:40.354Z,30.80
2017-11-09T22:48:08.596Z,21.73
2017-11-09T22:50:36.839Z,24.20
2017-11-09T22:53:05.075Z,28.23
2017-11-09T22:55:33.333Z,35.20
2017-11-09T22:58:02.611Z,31.83
2017-11-09T23:00:31.733Z,27.27
2017-11-09T23:03:00.828Z,24.33
2017-11-09T23:05:29.146Z,27.03
2017-11-09T23:07:57.476Z,27.27
2017-11-09T23:10:26.539Z,30.90
2017-11-09T23:12:54.843Z,26.70
2017-11-09T23:15:23.906Z,35.97
2017-11-09T23:17:52.269Z,34.63
2017-11-09T23:20:20.562Z,35.87
2017-11-09T23:22:49.620Z,36.63
2017-11-09T23:25:17.932Z,35.33
2017-11-09T23:27:46.237Z,41.97
2017-11-09T23:30:15.315Z,42.00
2017-11-09T23:32:44.439Z,39.07
2017-11-09T23:35:12.690Z,33.33
2017-11-09T23:37:40.948Z,36.47
2017-11-09T23:40:09.952Z,34.90
2017-11-09T23:42:38.190Z,38.27
2017-11-09T23:45:06.432Z,41.50
2017-11-09T23:47:35.447Z,35.87
2017-11-09T23:50:03.689Z,38.03
2017-11-09T23:52:32.703Z,39.97
2017-11-09T23:55:00.951Z,30.63
2017-11-09T23:57:29.197Z,30.40
2017-11-09T23:59:57.438Z,35.70
